Time;durP1;ratioP1;P1;durP2;ratioP2;P2;SDS_P1;SDS_P2;PMS_P1;PMS_P2;Temp;Humidity;BMP_temperature;BMP_pressure;BME280_temperature;BME280_humidity;BME280_pressure;Samples;Min_cycle;Max_cycle;Signal;HPM_P1;HPM_P2
2023/06/20 00:01:17;;;;;;;0.90;0.90;;;22.10;99.90;;;;;;5022947;28;20450;-77
2023/06/20 00:03:43;;;;;;;0.50;0.30;;;22.10;99.90;;;;;;5025378;28;20460;-78
2023/06/20 00:06:10;;;;;;;0.50;0.30;;;22.10;99.90;;;;;;5028618;28;20856;-75
2023/06/20 00:08:37;;;;;;;0.50;0.30;;;22.10;99.90;;;;;;5030166;28;20834;-79
2023/06/20 00:11:04;;;;;;;0.50;0.40;;;22.00;99.90;;;;;;5029835;28;20446;-75
2023/06/20 00:13:31;;;;;;;0.50;0.30;;;22.00;99.90;;;;;;5026159;28;20467;-78
2023/06/20 00:15:57;;;;;;;0.50;0.30;;;22.00;99.90;;;;;;5026498;28;20443;-79
2023/06/20 00:18:26;;;;;;;0.50;0.30;;;22.00;99.90;;;;;;5027497;28;20463;-78
2023/06/20 00:20:54;;;;;;;0.50;0.30;;;22.00;99.90;;;;;;5029443;28;20440;-78
2023/06/20 00:23:21;;;;;;;0.50;0.30;;;22.00;99.90;;;;;;5027480;28;20516;-79
2023/06/20 00:25:48;;;;;;;0.50;0.37;;;22.00;99.90;;;;;;5025849;28;20483;-79
2023/06/20 00:28:16;;;;;;;0.50;0.30;;;22.00;99.90;;;;;;5026297;28;21020;-78
2023/06/20 00:30:42;;;;;;;0.50;0.30;;;22.00;99.90;;;;;;5029038;28;20449;-78
2023/06/20 00:33:09;;;;;;;0.50;0.30;;;22.00;99.90;;;;;;5028634;28;20434;-78
2023/06/20 00:35:38;;;;;;;0.50;0.30;;;22.10;99.90;;;;;;5026282;28;20435;-79
2023/06/20 00:38:06;;;;;;;1.07;0.97;;;22.10;99.90;;;;;;5025412;28;20467;-79
2023/06/20 00:40:33;;;;;;;0.50;0.40;;;22.10;99.90;;;;;;5017371;28;20537;-79
2023/06/20 00:43:00;;;;;;;0.50;0.40;;;22.10;99.90;;;;;;5025921;28;20443;-79
2023/06/20 00:45:30;;;;;;;0.50;0.30;;;22.10;99.90;;;;;;5027679;28;20484;-78
2023/06/20 00:47:58;;;;;;;2.00;0.87;;;22.10;99.90;;;;;;5022804;28;20462;-78
2023/06/20 00:50:26;;;;;;;0.50;0.30;;;22.10;99.90;;;;;;5027639;28;20476;-79
2023/06/20 00:53:00;;;;;;;0.50;0.30;;;22.10;99.90;;;;;;5028457;28;20438;-78
2023/06/20 00:55:27;;;;;;;0.50;0.30;;;22.10;99.90;;;;;;5026734;28;20492;-78
2023/06/20 00:57:56;;;;;;;0.50;0.40;;;22.10;99.90;;;;;;5024447;28;20458;-76
2023/06/20 01:00:23;;;;;;;0.50;0.30;;;22.10;99.90;;;;;;5026729;28;20450;-78
2023/06/20 01:02:52;;;;;;;0.50;0.40;;;22.10;99.90;;;;;;5028123;28;20445;-78
2023/06/20 01:05:26;;;;;;;0.50;0.30;;;22.10;99.90;;;;;;5026667;28;20477;-78
2023/06/20 01:08:01;;;;;;;0.50;0.30;;;22.10;99.90;;;;;;5024697;28;20458;-78
2023/06/20 01:10:38;;;;;;;0.50;0.40;;;22.00;99.90;;;;;;5026797;28;20452;-79
2023/06/20 01:13:12;;;;;;;0.50;0.30;;;22.00;99.90;;;;;;5028653;28;20563;-79
2023/06/20 01:15:44;;;;;;;0.50;0.40;;;22.00;99.90;;;;;;5017394;28;20811;-78
2023/06/20 01:18:26;;;;;;;4.73;1.47;;;22.00;99.90;;;;;;5024216;28;20463;-76
2023/06/20 01:20:56;;;;;;;0.50;0.30;;;22.00;99.90;;;;;;5027707;28;20442;-78
2023/06/20 01:23:31;;;;;;;1.17;1.17;;;22.00;99.90;;;;;;5025726;28;20534;-78
2023/06/20 01:26:02;;;;;;;0.50;0.30;;;22.00;99.90;;;;;;5024386;28;20484;-78
2023/06/20 01:28:36;;;;;;;0.50;0.40;;;21.90;99.90;;;;;;5025827;28;20467;-79
2023/06/20 01:31:06;;;;;;;3.17;0.60;;;21.90;99.90;;;;;;5027591;28;20446;-79
2023/06/20 01:33:39;;;;;;;0.73;0.60;;;22.00;99.90;;;;;;5024593;28;20796;-78
2023/06/20 01:36:08;;;;;;;0.50;0.37;;;21.90;99.90;;;;;;5024742;28;20446;-78
2023/06/20 01:38:39;;;;;;;0.50;0.30;;;21.90;99.90;;;;;;5023652;28;20467;-79
2023/06/20 01:41:08;;;;;;;0.50;0.40;;;21.90;99.90;;;;;;5024828;28;20806;-78
2023/06/20 01:43:37;;;;;;;0.50;0.43;;;21.90;99.90;;;;;;5027334;28;20438;-78
2023/06/20 01:46:06;;;;;;;0.50;0.30;;;21.80;99.90;;;;;;5027462;28;20480;-77
2023/06/20 01:48:35;;;;;;;0.50;0.30;;;21.80;99.90;;;;;;5023727;28;20455;-78
2023/06/20 01:51:02;;;;;;;0.50;0.30;;;21.80;99.90;;;;;;5024154;28;20447;-78
2023/06/20 01:53:30;;;;;;;0.50;0.30;;;21.80;99.90;;;;;;5026580;28;20450;-78
2023/06/20 01:56:01;;;;;;;0.50;0.30;;;21.80;99.90;;;;;;5027834;28;20447;-79
2023/06/20 01:58:30;;;;;;;0.50;0.40;;;21.80;99.90;;;;;;5024712;28;20501;-79
2023/06/20 02:00:58;;;;;;;0.50;0.30;;;21.70;99.90;;;;;;5027673;28;20439;-78
2023/06/20 02:03:27;;;;;;;0.50;0.30;;;21.60;99.90;;;;;;5029607;28;20447;-77
2023/06/20 02:05:56;;;;;;;0.50;0.30;;;21.60;99.90;;;;;;5031824;28;20469;-78
2023/06/20 02:08:25;;;;;;;0.50;0.33;;;21.50;99.90;;;;;;5029633;28;20469;-79
2023/06/20 02:10:52;;;;;;;0.50;0.30;;;21.40;99.90;;;;;;5027648;28;20449;-78
2023/06/20 02:13:23;;;;;;;0.50;0.30;;;21.40;99.90;;;;;;5028787;28;20478;-79
2023/06/20 02:15:51;;;;;;;1.37;1.27;;;21.30;99.90;;;;;;5031494;28;20437;-77
2023/06/20 02:18:18;;;;;;;0.50;0.30;;;21.20;99.90;;;;;;5029333;28;20560;-75
2023/06/20 02:20:48;;;;;;;0.50;0.30;;;21.20;99.90;;;;;;5027662;28;20442;-79
2023/06/20 02:23:16;;;;;;;0.50;0.30;;;21.20;99.90;;;;;;5031019;28;20448;-76
2023/06/20 02:25:46;;;;;;;0.50;0.30;;;21.10;99.90;;;;;;5027950;28;20919;-78
2023/06/20 02:28:15;;;;;;;0.50;0.30;;;21.10;99.90;;;;;;5027384;28;20486;-76
2023/06/20 02:30:45;;;;;;;0.50;0.30;;;21.20;99.90;;;;;;5019369;28;20437;-79
2023/06/20 02:33:13;;;;;;;0.50;0.40;;;21.20;99.90;;;;;;5027851;28;20443;-77
2023/06/20 02:35:42;;;;;;;0.50;0.30;;;21.20;99.90;;;;;;5022958;28;20449;-77
2023/06/20 02:38:10;;;;;;;0.50;0.30;;;21.20;99.90;;;;;;5030601;28;20473;-78
2023/06/20 02:40:37;;;;;;;0.50;0.30;;;21.20;99.90;;;;;;5027946;28;20450;-78
2023/06/20 02:43:06;;;;;;;0.50;0.30;;;21.20;99.90;;;;;;5027719;28;20501;-79
2023/06/20 02:45:33;;;;;;;0.50;0.30;;;21.20;99.90;;;;;;5029727;28;20450;-78
2023/06/20 02:48:12;;;;;;;0.50;0.30;;;21.20;99.90;;;;;;5030676;28;20465;-78
2023/06/20 02:50:45;;;;;;;0.50;0.40;;;21.20;99.90;;;;;;5026803;28;20434;-77
2023/06/20 02:53:21;;;;;;;0.60;0.40;;;21.20;99.90;;;;;;5027332;28;20435;-79
2023/06/20 02:55:54;;;;;;;0.50;0.30;;;21.30;99.90;;;;;;5020614;28;20439;-79
2023/06/20 02:58:22;;;;;;;0.50;0.30;;;21.30;99.90;;;;;;5027217;28;20459;-77
2023/06/20 03:00:52;;;;;;;0.50;0.30;;;21.30;99.90;;;;;;5030423;28;20453;-78
2023/06/20 03:03:23;;;;;;;0.60;0.60;;;21.20;99.90;;;;;;5029901;28;20445;-79
2023/06/20 03:05:56;;;;;;;0.50;0.30;;;21.20;99.90;;;;;;5027271;28;20507;-79
2023/06/20 03:08:25;;;;;;;0.50;0.30;;;21.20;99.90;;;;;;5027318;28;20463;-76
2023/06/20 03:10:54;;;;;;;0.50;0.30;;;21.10;99.90;;;;;;5030269;28;20442;-77
2023/06/20 03:13:21;;;;;;;0.50;0.30;;;21.10;99.90;;;;;;5030140;28;20828;-79
2023/06/20 03:15:49;;;;;;;0.50;0.30;;;21.10;99.90;;;;;;5027580;28;20445;-79
2023/06/20 03:18:17;;;;;;;0.50;0.40;;;21.10;99.90;;;;;;5026887;28;20498;-79
2023/06/20 03:20:45;;;;;;;0.50;0.30;;;21.10;99.90;;;;;;5018956;28;20454;-79
2023/06/20 03:23:12;;;;;;;0.50;0.30;;;21.10;99.90;;;;;;5026736;28;20511;-80
2023/06/20 03:25:39;;;;;;;0.50;0.30;;;21.10;99.90;;;;;;5027150;28;20507;-79
2023/06/20 03:28:06;;;;;;;0.60;0.40;;;21.10;99.90;;;;;;5030133;28;20471;-80
2023/06/20 03:30:32;;;;;;;0.50;0.30;;;21.10;99.90;;;;;;5032073;28;20441;-78
2023/06/20 03:32:59;;;;;;;0.60;0.40;;;21.10;99.90;;;;;;5033034;28;20449;-80
2023/06/20 03:35:26;;;;;;;0.50;0.30;;;21.10;99.90;;;;;;5029980;28;20926;-80
2023/06/20 03:37:54;;;;;;;0.60;0.40;;;21.10;99.90;;;;;;5028813;28;20549;-79
2023/06/20 03:40:21;;;;;;;0.50;0.30;;;21.20;99.90;;;;;;5031372;28;20522;-80
2023/06/20 03:42:50;;;;;;;0.50;0.30;;;21.20;99.90;;;;;;5034707;28;20862;-81
2023/06/20 03:45:17;;;;;;;0.50;0.30;;;21.20;99.90;;;;;;5035171;28;20449;-81
2023/06/20 03:47:43;;;;;;;0.50;0.40;;;21.30;99.90;;;;;;5030620;28;20482;-81
2023/06/20 03:50:10;;;;;;;0.50;0.30;;;21.40;99.90;;;;;;5030637;28;20474;-82
2023/06/20 03:52:37;;;;;;;0.50;0.30;;;21.40;99.90;;;;;;5032215;28;20930;-78
2023/06/20 03:55:07;;;;;;;0.50;0.30;;;21.50;99.90;;;;;;5032130;28;20444;-81
2023/06/20 03:57:33;;;;;;;0.50;0.30;;;21.60;99.90;;;;;;5029419;28;20454;-81
2023/06/20 04:00:01;;;;;;;0.50;0.30;;;21.60;99.90;;;;;;5028725;28;20446;-80
2023/06/20 04:02:28;;;;;;;1.17;1.07;;;21.70;99.90;;;;;;5030634;28;20434;-81
2023/06/20 04:04:54;;;;;;;0.50;0.30;;;21.70;99.90;;;;;;5028224;28;20439;-80
2023/06/20 04:07:21;;;;;;;0.50;0.30;;;21.70;99.90;;;;;;5029375;28;20574;-79
2023/06/20 04:09:49;;;;;;;0.50;0.40;;;21.70;99.90;;;;;;5033106;28;20456;-81
2023/06/20 04:12:17;;;;;;;0.50;0.30;;;21.80;99.90;;;;;;5034420;28;20446;-81
2023/06/20 04:14:44;;;;;;;0.50;0.30;;;21.80;99.90;;;;;;5030402;28;20443;-80
2023/06/20 04:17:11;;;;;;;0.50;0.50;;;21.80;99.90;;;;;;5030053;28;20443;-79
2023/06/20 04:19:38;;;;;;;0.50;0.30;;;21.80;99.90;;;;;;5032619;28;20450;-81
2023/06/20 04:22:05;;;;;;;0.50;0.30;;;21.90;99.90;;;;;;5026746;28;20449;-80
2023/06/20 04:24:31;;;;;;;0.50;0.30;;;21.90;99.90;;;;;;5031455;28;20474;-81
2023/06/20 04:26:58;;;;;;;0.50;0.30;;;21.90;99.90;;;;;;5021231;28;20477;-81
2023/06/20 04:29:29;;;;;;;0.50;0.30;;;22.00;99.90;;;;;;5013021;28;20460;-79
2023/06/20 04:31:55;;;;;;;0.50;0.30;;;22.00;99.90;;;;;;5033929;28;20452;-80
2023/06/20 04:34:23;;;;;;;0.50;0.30;;;22.00;99.90;;;;;;5029172;28;20447;-78
2023/06/20 04:36:50;;;;;;;0.50;0.30;;;22.00;99.90;;;;;;5038533;28;20446;-80
2023/06/20 04:39:17;;;;;;;0.50;0.30;;;22.00;99.90;;;;;;5030511;28;20466;-80
2023/06/20 04:41:44;;;;;;;0.50;0.30;;;22.00;99.90;;;;;;5039703;28;20461;-80
2023/06/20 04:44:11;;;;;;;0.67;0.67;;;22.10;99.90;;;;;;5031149;28;20479;-77
2023/06/20 04:46:39;;;;;;;0.50;0.30;;;22.10;99.90;;;;;;5032737;28;20922;-81
2023/06/20 04:49:06;;;;;;;0.50;0.30;;;22.20;99.90;;;;;;5034560;28;20551;-79
2023/06/20 04:51:33;;;;;;;0.50;0.30;;;22.20;99.90;;;;;;5033539;28;20810;-80
2023/06/20 04:54:00;;;;;;;1.33;1.23;;;22.20;99.90;;;;;;5030789;28;20450;-80
2023/06/20 04:56:27;;;;;;;0.50;0.30;;;22.20;99.90;;;;;;5032226;28;20439;-80
2023/06/20 04:58:59;;;;;;;0.50;0.30;;;22.10;99.90;;;;;;5030489;28;20481;-83
2023/06/20 05:01:26;;;;;;;0.50;0.40;;;22.00;99.90;;;;;;5021679;28;20950;-82
2023/06/20 05:03:54;;;;;;;0.50;0.30;;;21.90;99.90;;;;;;5032977;28;20803;-81
2023/06/20 05:06:20;;;;;;;0.50;0.30;;;21.80;99.90;;;;;;5033705;28;20959;-82
2023/06/20 05:08:47;;;;;;;0.50;0.30;;;21.80;99.90;;;;;;5029615;28;20519;-80
2023/06/20 05:11:14;;;;;;;0.50;0.40;;;21.80;99.90;;;;;;5030517;28;20450;-82
2023/06/20 05:13:41;;;;;;;0.50;0.30;;;21.80;99.90;;;;;;5033054;28;20437;-82
2023/06/20 05:16:07;;;;;;;0.90;0.90;;;21.70;99.90;;;;;;5034047;28;20445;-81
2023/06/20 05:18:34;;;;;;;1.20;1.20;;;21.70;99.90;;;;;;5033062;28;20448;-82
2023/06/20 05:21:03;;;;;;;0.60;0.53;;;21.60;99.90;;;;;;5031909;28;20453;-82
2023/06/20 05:23:29;;;;;;;0.60;0.50;;;21.60;99.90;;;;;;5032588;28;20514;-82
2023/06/20 05:25:56;;;;;;;0.50;0.30;;;21.70;99.90;;;;;;5034291;28;20449;-81
2023/06/20 05:28:23;;;;;;;0.50;0.30;;;21.70;99.90;;;;;;5033416;28;20477;-81
2023/06/20 05:30:50;;;;;;;0.50;0.30;;;21.80;99.90;;;;;;5033937;28;20449;-81
2023/06/20 05:33:16;;;;;;;0.50;0.30;;;21.80;99.90;;;;;;5034003;28;20909;-81
2023/06/20 05:35:46;;;;;;;0.50;0.40;;;21.90;99.90;;;;;;5032391;28;21222;-80
2023/06/20 05:38:15;;;;;;;0.50;0.40;;;21.90;99.90;;;;;;5035678;28;20466;-81
2023/06/20 05:40:42;;;;;;;0.50;0.30;;;22.00;99.90;;;;;;5030836;28;20453;-83
2023/06/20 05:43:09;;;;;;;0.50;0.30;;;22.10;99.90;;;;;;5031931;28;20449;-78
2023/06/20 05:45:36;;;;;;;0.50;0.30;;;22.30;99.90;;;;;;5031266;28;20447;-82
2023/06/20 05:48:03;;;;;;;0.50;0.37;;;22.30;99.90;;;;;;5032777;28;20876;-78
2023/06/20 05:50:30;;;;;;;0.50;0.40;;;22.40;99.90;;;;;;5028436;28;20508;-80
2023/06/20 05:52:57;;;;;;;0.50;0.30;;;22.40;99.90;;;;;;5034490;28;20438;-81
2023/06/20 05:55:25;;;;;;;0.50;0.30;;;22.50;99.90;;;;;;5033324;28;20867;-82
2023/06/20 05:57:52;;;;;;;0.50;0.30;;;22.50;99.90;;;;;;5034773;28;20458;-81
2023/06/20 06:00:20;;;;;;;0.50;0.30;;;22.60;99.90;;;;;;5034313;28;20880;-81
2023/06/20 06:02:46;;;;;;;0.50;0.30;;;22.60;99.90;;;;;;5034445;28;21035;-80
2023/06/20 06:05:13;;;;;;;3.13;2.53;;;22.60;99.90;;;;;;5033885;28;20441;-78
2023/06/20 06:07:40;;;;;;;0.50;0.30;;;22.60;99.90;;;;;;5027746;28;20490;-80
2023/06/20 06:10:08;;;;;;;4.00;1.80;;;22.50;99.90;;;;;;5015323;28;20921;-78
2023/06/20 06:12:36;;;;;;;0.50;0.40;;;22.40;99.90;;;;;;5014002;28;20439;-80
2023/06/20 06:15:04;;;;;;;0.60;0.50;;;22.30;99.90;;;;;;5006600;28;20936;-79
2023/06/20 06:17:31;;;;;;;0.50;0.30;;;22.30;99.90;;;;;;5027338;28;20459;-81
2023/06/20 06:19:58;;;;;;;0.50;0.30;;;22.30;99.90;;;;;;5015525;28;20447;-81
2023/06/20 06:22:25;;;;;;;1.40;1.10;;;22.40;99.90;;;;;;5016370;28;20443;-79
2023/06/20 06:24:52;;;;;;;1.43;1.33;;;22.40;99.90;;;;;;5019163;28;20493;-79
2023/06/20 06:27:18;;;;;;;0.60;0.50;;;22.30;99.90;;;;;;5029448;28;20477;-81
2023/06/20 06:29:47;;;;;;;1.23;0.40;;;22.40;99.90;;;;;;5033406;28;20442;-81
2023/06/20 06:32:15;;;;;;;0.60;0.50;;;22.40;99.90;;;;;;5032631;28;20485;-80
2023/06/20 06:34:42;;;;;;;0.50;0.30;;;22.50;99.90;;;;;;5032352;28;20442;-81
2023/06/20 06:37:10;;;;;;;0.50;0.30;;;22.50;99.90;;;;;;5029834;28;20438;-81
2023/06/20 06:39:37;;;;;;;0.50;0.40;;;22.50;99.90;;;;;;5030257;28;20518;-80
2023/06/20 06:42:05;;;;;;;0.63;0.63;;;22.50;99.90;;;;;;5034102;28;20473;-81
2023/06/20 06:44:31;;;;;;;1.00;0.87;;;22.50;99.90;;;;;;5033122;28;20456;-81
2023/06/20 06:47:01;;;;;;;2.80;2.63;;;22.40;99.90;;;;;;5029768;28;20474;-81
2023/06/20 06:49:28;;;;;;;0.50;0.40;;;22.30;99.90;;;;;;5037335;28;20445;-82
2023/06/20 06:51:56;;;;;;;0.70;0.70;;;22.30;99.90;;;;;;5025360;28;20854;-81
2023/06/20 06:54:22;;;;;;;0.50;0.40;;;22.40;99.90;;;;;;5032967;28;20439;-79
2023/06/20 06:57:01;;;;;;;0.90;0.70;;;22.50;99.90;;;;;;5034260;28;20501;-79
2023/06/20 06:59:27;;;;;;;0.50;0.30;;;22.70;99.90;;;;;;5034545;28;20454;-80
2023/06/20 07:01:54;;;;;;;0.50;0.30;;;22.90;99.90;;;;;;5036705;28;20464;-82
2023/06/20 07:04:22;;;;;;;0.50;0.30;;;23.40;99.90;;;;;;5037634;28;20533;-81
2023/06/20 07:06:49;;;;;;;0.50;0.30;;;23.90;99.90;;;;;;5033874;28;20462;-81
2023/06/20 07:09:16;;;;;;;0.50;0.30;;;24.60;99.90;;;;;;5032654;28;20462;-81
2023/06/20 07:11:43;;;;;;;0.50;0.40;;;25.30;99.90;;;;;;5035133;28;20457;-82
2023/06/20 07:14:09;;;;;;;0.60;0.50;;;26.10;99.90;;;;;;5037963;28;20465;-81
2023/06/20 07:16:36;;;;;;;0.50;0.30;;;26.80;99.90;;;;;;5036205;28;20442;-83
2023/06/20 07:19:03;;;;;;;1.23;1.13;;;27.30;99.90;;;;;;5033908;28;20455;-82
2023/06/20 07:21:31;;;;;;;7.33;2.03;;;27.70;99.90;;;;;;5033007;28;20511;-81
2023/06/20 07:23:58;;;;;;;0.50;0.30;;;28.10;99.90;;;;;;5025811;28;20441;-83
2023/06/20 07:26:24;;;;;;;0.50;0.30;;;28.10;99.90;;;;;;5033341;28;20443;-81
2023/06/20 07:28:51;;;;;;;1.07;1.07;;;28.20;99.90;;;;;;5035624;28;20474;-83
2023/06/20 07:31:18;;;;;;;0.50;0.43;;;28.60;99.90;;;;;;5036773;28;20450;-82
2023/06/20 07:33:45;;;;;;;0.60;0.40;;;28.80;99.90;;;;;;5034954;28;20592;-81
2023/06/20 07:36:12;;;;;;;5.40;4.90;;;29.80;99.90;;;;;;5034657;28;20470;-82
2023/06/20 07:38:40;;;;;;;0.73;0.73;;;30.20;99.90;;;;;;5034347;28;20474;-82
2023/06/20 07:41:07;;;;;;;0.50;0.30;;;30.90;99.90;;;;;;5037870;28;20518;-78
2023/06/20 07:43:34;;;;;;;0.60;0.53;;;31.00;97.90;;;;;;5037417;28;20456;-80
2023/06/20 07:46:01;;;;;;;0.50;0.30;;;31.00;96.40;;;;;;5034495;28;20530;-80
2023/06/20 07:48:28;;;;;;;0.50;0.40;;;30.80;96.10;;;;;;5034091;28;20489;-81
2023/06/20 07:50:55;;;;;;;0.50;0.30;;;31.30;95.80;;;;;;5035435;28;20446;-83
2023/06/20 07:53:21;;;;;;;1.47;1.37;;;31.90;92.90;;;;;;5033373;28;20946;-83
2023/06/20 07:55:49;;;;;;;0.70;0.60;;;32.10;90.20;;;;;;5034803;28;20545;-82
2023/06/20 07:58:19;;;;;;;0.50;0.30;;;31.20;92.20;;;;;;5035816;28;20461;-82
2023/06/20 08:00:46;;;;;;;0.50;0.30;;;31.30;92.20;;;;;;5034415;28;20443;-82
2023/06/20 08:03:13;;;;;;;1.57;0.60;;;31.70;91.50;;;;;;5032593;28;20506;-78
2023/06/20 08:05:39;;;;;;;0.83;0.50;;;31.30;90.80;;;;;;5033149;28;20954;-81
2023/06/20 08:08:06;;;;;;;0.50;0.30;;;30.70;91.10;;;;;;5035495;28;20484;-81
2023/06/20 08:10:33;;;;;;;0.50;0.40;;;30.90;95.00;;;;;;5035858;28;20446;-81
2023/06/20 08:13:01;;;;;;;4.33;2.93;;;30.90;91.70;;;;;;5025179;28;20458;-82
2023/06/20 08:15:28;;;;;;;0.50;0.40;;;30.90;91.40;;;;;;5031894;28;20443;-82
2023/06/20 08:17:54;;;;;;;2.07;1.87;;;30.30;93.00;;;;;;5035764;28;20454;-82
2023/06/20 08:20:21;;;;;;;0.50;0.40;;;30.30;92.50;;;;;;5035462;28;20442;-82
2023/06/20 08:22:48;;;;;;;0.50;0.30;;;30.60;93.80;;;;;;5033783;28;20454;-80
2023/06/20 08:25:15;;;;;;;2.93;1.80;;;31.40;92.80;;;;;;5033222;28;20443;-79
2023/06/20 08:27:41;;;;;;;1.30;0.73;;;32.10;89.50;;;;;;5028120;28;20498;-81
2023/06/20 08:30:11;;;;;;;1.00;0.90;;;32.40;87.30;;;;;;5029924;28;20525;-79
2023/06/20 08:32:41;;;;;;;0.70;0.70;;;31.90;86.20;;;;;;5034033;28;20456;-80
2023/06/20 08:35:09;;;;;;;1.70;0.70;;;31.10;88.20;;;;;;5032089;28;20461;-81
2023/06/20 08:37:36;;;;;;;0.50;0.30;;;30.70;90.60;;;;;;5026554;28;20466;-81
2023/06/20 08:40:05;;;;;;;0.60;0.50;;;31.10;91.90;;;;;;5033905;28;20546;-81
2023/06/20 08:42:32;;;;;;;1.63;0.60;;;31.90;90.80;;;;;;5035507;28;20485;-82
2023/06/20 08:44:59;;;;;;;1.07;0.97;;;31.50;86.90;;;;;;5031652;28;20449;-82
2023/06/20 08:47:28;;;;;;;0.60;0.60;;;31.00;85.40;;;;;;5030439;28;20455;-82
2023/06/20 08:49:54;;;;;;;0.50;0.40;;;30.70;87.70;;;;;;5040152;28;20443;-80
2023/06/20 08:52:26;;;;;;;1.47;0.80;;;31.40;88.20;;;;;;5030716;28;20445;-81
2023/06/20 08:54:54;;;;;;;2.20;1.40;;;33.00;85.20;;;;;;5033840;28;20961;-83
2023/06/20 08:57:21;;;;;;;2.10;2.00;;;32.80;79.50;;;;;;5037086;28;20795;-82
2023/06/20 08:59:48;;;;;;;0.90;0.67;;;32.50;81.10;;;;;;5032187;28;20568;-83
2023/06/20 09:02:16;;;;;;;0.93;0.93;;;31.20;82.20;;;;;;5032256;28;20450;-82
2023/06/20 09:04:44;;;;;;;0.80;0.80;;;31.50;84.20;;;;;;5030932;28;20447;-83
2023/06/20 09:07:21;;;;;;;0.50;0.30;;;31.30;83.20;;;;;;5031311;28;20439;-81
2023/06/20 09:09:48;;;;;;;0.50;0.40;;;31.60;85.10;;;;;;5032354;28;20439;-82
2023/06/20 09:12:15;;;;;;;0.50;0.40;;;32.80;83.20;;;;;;5034738;28;20441;-81
2023/06/20 09:14:42;;;;;;;0.60;0.40;;;33.20;78.80;;;;;;5033961;28;20434;-82
2023/06/20 09:17:09;;;;;;;0.80;0.80;;;34.10;77.10;;;;;;5031659;28;20447;-82
2023/06/20 09:19:42;;;;;;;0.50;0.30;;;33.40;75.10;;;;;;5031467;28;20966;-83
2023/06/20 09:22:12;;;;;;;3.03;0.63;;;33.00;77.50;;;;;;5024707;28;20493;-81
2023/06/20 09:24:43;;;;;;;0.43;0.30;;;32.90;76.20;;;;;;5031931;28;20447;-81
2023/06/20 09:27:09;;;;;;;0.50;0.30;;;33.10;79.40;;;;;;5035028;28;20437;-81
2023/06/20 09:29:50;;;;;;;0.50;0.30;;;33.20;77.20;;;;;;5035036;28;20524;-82
2023/06/20 09:32:20;;;;;;;0.50;0.30;;;34.10;74.00;;;;;;5025831;28;20435;-83
2023/06/20 09:34:47;;;;;;;0.97;0.90;;;35.00;72.20;;;;;;5033721;28;20437;-82
2023/06/20 09:37:17;;;;;;;0.67;0.67;;;35.20;69.50;;;;;;5034990;28;20501;-81
2023/06/20 09:39:44;;;;;;;0.50;0.50;;;35.30;68.30;;;;;;5033953;28;20457;-83
2023/06/20 09:42:13;;;;;;;0.70;0.40;;;34.90;71.00;;;;;;5030746;28;20499;-78
2023/06/20 09:44:40;;;;;;;0.50;0.40;;;34.80;69.90;;;;;;5030464;28;20907;-80
2023/06/20 09:47:08;;;;;;;0.50;0.40;;;35.30;69.80;;;;;;5033959;28;20484;-82
2023/06/20 09:49:36;;;;;;;0.90;0.90;;;36.10;68.80;;;;;;5033889;28;20473;-83
2023/06/20 09:52:07;;;;;;;1.23;1.13;;;36.00;64.90;;;;;;5029460;28;20447;-82
2023/06/20 09:54:43;;;;;;;0.50;0.30;;;33.70;67.80;;;;;;5029139;28;20459;-81
2023/06/20 09:57:13;;;;;;;0.70;0.70;;;33.50;71.60;;;;;;5022323;28;20444;-80
2023/06/20 09:59:43;;;;;;;2.07;1.30;;;33.70;71.10;;;;;;5029708;28;20462;-84
2023/06/20 10:02:10;;;;;;;0.50;0.40;;;33.50;71.40;;;;;;5022504;28;20447;-83
2023/06/20 10:04:42;;;;;;;0.50;0.30;;;33.70;72.30;;;;;;5033800;28;20467;-82
2023/06/20 10:07:10;;;;;;;0.50;0.30;;;34.50;72.70;;;;;;5025333;28;20458;-80
2023/06/20 10:09:39;;;;;;;0.60;0.50;;;35.70;67.50;;;;;;5032746;28;20955;-81
2023/06/20 10:12:08;;;;;;;0.60;0.60;;;35.60;66.50;;;;;;5032548;28;20451;-82
2023/06/20 10:14:36;;;;;;;1.03;0.93;;;35.60;67.30;;;;;;5033229;28;20539;-81
2023/06/20 10:17:06;;;;;;;0.50;0.30;;;36.00;66.60;;;;;;5035554;28;20441;-82
2023/06/20 10:19:47;;;;;;;0.40;0.30;;;36.20;65.60;;;;;;5028876;28;20842;-83
2023/06/20 10:22:14;;;;;;;0.50;0.40;;;36.10;67.00;;;;;;5025988;28;20446;-81
2023/06/20 10:24:42;;;;;;;0.40;0.30;;;36.50;64.30;;;;;;5039841;28;20448;-82
2023/06/20 10:27:09;;;;;;;0.40;0.30;;;35.70;63.90;;;;;;5029396;28;20435;-82
2023/06/20 10:29:40;;;;;;;0.40;0.30;;;36.20;63.70;;;;;;5036955;28;20573;-82
2023/06/20 10:32:08;;;;;;;0.60;0.60;;;36.60;63.50;;;;;;5039993;28;20443;-82
2023/06/20 10:34:36;;;;;;;0.40;0.30;;;36.70;61.90;;;;;;5038788;28;20470;-81
2023/06/20 10:37:16;;;;;;;0.70;0.60;;;37.20;62.60;;;;;;5035941;28;20455;-81
2023/06/20 10:39:54;;;;;;;0.40;0.30;;;37.20;60.10;;;;;;5035665;28;20938;-79
2023/06/20 10:42:38;;;;;;;0.40;0.30;;;36.40;60.60;;;;;;5039468;28;20797;-81
2023/06/20 10:45:22;;;;;;;0.40;0.30;;;36.80;61.30;;;;;;5035545;28;21005;-81
2023/06/20 10:47:50;;;;;;;0.40;0.30;;;36.80;60.00;;;;;;5035906;28;20463;-82
2023/06/20 10:50:18;;;;;;;0.40;0.30;;;34.90;63.70;;;;;;5038990;28;20526;-82
2023/06/20 10:52:45;;;;;;;0.50;0.30;;;35.20;65.20;;;;;;5031274;28;20440;-81
2023/06/20 10:55:16;;;;;;;1.67;0.93;;;35.50;62.80;;;;;;5038932;28;20469;-79
2023/06/20 10:57:46;;;;;;;0.50;0.30;;;35.40;62.50;;;;;;5039123;28;20463;-82
2023/06/20 11:00:17;;;;;;;4.00;2.23;;;35.60;62.50;;;;;;5026991;28;20438;-81
2023/06/20 11:02:45;;;;;;;0.50;0.47;;;35.70;62.00;;;;;;5036195;28;20622;-82
2023/06/20 11:05:12;;;;;;;0.73;0.73;;;35.40;61.20;;;;;;5028177;28;20534;-82
2023/06/20 11:07:55;;;;;;;1.83;1.53;;;35.40;63.30;;;;;;5035893;28;20460;-81
2023/06/20 11:10:27;;;;;;;2.20;1.10;;;34.60;63.10;;;;;;5028574;28;20478;-79
2023/06/20 11:12:55;;;;;;;0.50;0.30;;;33.00;65.50;;;;;;5035784;28;20519;-81
2023/06/20 11:15:23;;;;;;;0.50;0.40;;;33.40;69.20;;;;;;5039013;28;20434;-83
2023/06/20 11:17:50;;;;;;;1.10;0.73;;;34.50;69.20;;;;;;5038140;28;20942;-82
2023/06/20 11:20:18;;;;;;;1.33;1.33;;;35.50;65.20;;;;;;5040211;28;20470;-82
2023/06/20 11:22:47;;;;;;;0.50;0.40;;;36.40;63.50;;;;;;5040796;28;20586;-82
2023/06/20 11:25:26;;;;;;;0.50;0.30;;;37.20;59.30;;;;;;5027590;28;20959;-83
2023/06/20 11:27:53;;;;;;;0.40;0.30;;;36.80;58.80;;;;;;5036371;28;21144;-82
2023/06/20 11:30:28;;;;;;;0.40;0.40;;;37.30;59.20;;;;;;5038742;28;20475;-83
2023/06/20 11:33:06;;;;;;;0.40;0.30;;;38.20;58.90;;;;;;5036334;28;20522;-82
2023/06/20 11:35:44;;;;;;;0.80;0.80;;;37.80;56.90;;;;;;5036212;28;20447;-82
2023/06/20 11:38:13;;;;;;;0.50;0.40;;;37.70;57.30;;;;;;5022662;28;20480;-82
2023/06/20 11:40:42;;;;;;;0.87;0.87;;;37.20;59.60;;;;;;5033256;28;20439;-81
2023/06/20 11:43:22;;;;;;;0.40;0.40;;;37.10;57.90;;;;;;5035534;28;20448;-82
2023/06/20 11:45:49;;;;;;;0.40;0.30;;;36.90;59.00;;;;;;5035270;28;20440;-82
2023/06/20 11:48:17;;;;;;;0.40;0.30;;;36.70;58.60;;;;;;5032623;28;20468;-81
2023/06/20 11:50:47;;;;;;;1.03;1.03;;;36.80;58.30;;;;;;5033058;28;20491;-79
2023/06/20 11:53:21;;;;;;;0.43;0.30;;;37.00;58.40;;;;;;5025136;28;20528;-77
2023/06/20 11:55:50;;;;;;;0.60;0.50;;;36.60;58.50;;;;;;5033226;28;20449;-80
2023/06/20 11:58:18;;;;;;;0.40;0.30;;;36.80;57.90;;;;;;5031983;28;20466;-84
2023/06/20 12:00:47;;;;;;;0.50;0.40;;;36.70;57.90;;;;;;5033242;28;20443;-83
2023/06/20 12:03:18;;;;;;;0.73;0.60;;;37.40;57.80;;;;;;5033214;28;20471;-78
2023/06/20 12:05:45;;;;;;;0.40;0.30;;;37.10;57.80;;;;;;5033014;28;20447;-81
2023/06/20 12:08:14;;;;;;;0.40;0.30;;;37.60;57.80;;;;;;5037289;28;20467;-83
2023/06/20 12:10:41;;;;;;;0.50;0.40;;;37.80;56.50;;;;;;5038024;28;20458;-82
2023/06/20 12:13:09;;;;;;;0.40;0.30;;;38.10;57.20;;;;;;5031724;28;20449;-82
2023/06/20 12:15:36;;;;;;;1.57;1.47;;;38.40;56.30;;;;;;5025794;28;20457;-81
2023/06/20 12:18:03;;;;;;;0.70;0.60;;;38.20;54.80;;;;;;5033933;28;20476;-82
2023/06/20 12:20:30;;;;;;;0.70;0.70;;;36.80;56.20;;;;;;5034963;28;20454;-82
2023/06/20 12:22:58;;;;;;;0.50;0.30;;;35.60;58.20;;;;;;5034365;28;20545;-81
2023/06/20 12:25:25;;;;;;;0.50;0.30;;;34.60;60.90;;;;;;5032553;28;21009;-82
2023/06/20 12:27:52;;;;;;;0.70;0.60;;;34.60;63.10;;;;;;5032984;28;20981;-81
2023/06/20 12:30:20;;;;;;;3.90;1.87;;;35.20;61.00;;;;;;5036903;28;20478;-82
2023/06/20 12:32:47;;;;;;;1.43;1.17;;;35.80;60.30;;;;;;5035357;28;20439;-82
2023/06/20 12:35:14;;;;;;;0.93;0.87;;;35.20;59.70;;;;;;5032615;28;20507;-81
2023/06/20 12:37:40;;;;;;;0.50;0.40;;;34.70;61.10;;;;;;5031714;28;20539;-80
2023/06/20 12:40:10;;;;;;;1.23;1.13;;;35.20;61.70;;;;;;5033795;28;20440;-80
2023/06/20 12:42:36;;;;;;;0.90;0.63;;;35.80;60.40;;;;;;5034735;28;20443;-81
2023/06/20 12:45:04;;;;;;;0.50;0.50;;;35.50;59.30;;;;;;5032804;28;20447;-83
2023/06/20 12:47:33;;;;;;;0.40;0.30;;;35.90;60.60;;;;;;5025350;28;20668;-82
2023/06/20 12:50:02;;;;;;;0.60;0.60;;;37.20;59.40;;;;;;5033820;28;20582;-82
2023/06/20 12:52:30;;;;;;;0.40;0.30;;;37.90;56.50;;;;;;5032939;28;20899;-80
2023/06/20 12:55:00;;;;;;;0.40;0.30;;;36.90;57.60;;;;;;5034592;28;20438;-81